Time;durP1;ratioP1;P1;durP2;ratioP2;P2;SDS_P1;SDS_P2;PMS_P1;PMS_P2;Temp;Humidity;BMP_temperature;BMP_pressure;BME280_temperature;BME280_humidity;BME280_pressure;Samples;Min_cycle;Max_cycle;Signal;HPM_P1;HPM_P2
2022/12/27 00:00:39;0.00;0.00;0.62;0.00;0.00;0.62;1.90;0.70;;;23.30;28.70;;;;;;2259991;61;20850;-55
2022/12/27 00:03:26;0.00;0.00;0.62;0.00;0.00;0.62;1.27;0.70;;;23.30;28.60;;;;;;2259702;61;20380;-52
2022/12/27 00:06:14;0.00;0.00;0.62;0.00;0.00;0.62;1.60;0.90;;;23.30;28.90;;;;;;2259829;61;20365;-54
2022/12/27 00:09:01;0.00;0.00;0.62;0.00;0.00;0.62;2.23;0.90;;;23.30;28.60;;;;;;2259804;61;20385;-56
2022/12/27 00:11:46;0.00;0.00;0.62;0.00;0.00;0.62;1.33;0.73;;;23.30;28.60;;;;;;2260026;61;20498;-58
2022/12/27 00:14:31;0.00;0.00;0.62;0.00;0.00;0.62;2.17;0.70;;;23.30;28.60;;;;;;2259691;61;20948;-55
2022/12/27 00:17:15;0.00;0.00;0.62;0.00;0.00;0.62;1.47;0.90;;;23.30;28.60;;;;;;2259618;61;20361;-56
2022/12/27 00:20:02;0.00;0.00;0.62;0.00;0.00;0.62;1.40;0.70;;;23.30;29.10;;;;;;2259991;61;20362;-52
2022/12/27 00:22:47;0.00;0.00;0.62;0.00;0.00;0.62;1.47;0.70;;;23.30;28.60;;;;;;2259644;61;20372;-57
2022/12/27 00:25:33;0.00;0.00;0.62;0.00;0.00;0.62;2.50;1.20;;;23.30;28.60;;;;;;2259566;61;20415;-57
2022/12/27 00:28:17;0.00;0.00;0.62;0.00;0.00;0.62;1.97;0.90;;;23.30;28.50;;;;;;2262287;61;20783;-54
2022/12/27 00:31:04;0.00;0.00;0.62;0.00;0.00;0.62;2.50;1.10;;;23.30;28.50;;;;;;2263601;61;20371;-57
2022/12/27 00:33:52;0.00;0.00;0.62;0.00;0.00;0.62;2.07;0.90;;;23.30;28.50;;;;;;2263360;61;20931;-57
2022/12/27 00:36:38;0.00;0.00;0.62;0.00;0.00;0.62;1.40;0.80;;;23.30;28.50;;;;;;2264024;61;20532;-56
2022/12/27 00:39:24;0.00;0.00;0.62;0.00;0.00;0.62;1.60;0.70;;;23.30;28.50;;;;;;2263396;61;20383;-56
2022/12/27 00:42:09;0.00;0.00;0.62;0.00;0.00;0.62;1.30;0.63;;;23.30;28.60;;;;;;2263872;61;20355;-55
2022/12/27 00:44:54;0.00;0.00;0.62;0.00;0.00;0.62;2.23;1.03;;;23.30;28.60;;;;;;2263807;61;20376;-53
2022/12/27 00:47:39;0.00;0.00;0.62;0.00;0.00;0.62;1.50;0.80;;;23.30;28.60;;;;;;2263780;61;20408;-58
2022/12/27 00:50:24;0.00;0.00;0.62;0.00;0.00;0.62;1.53;0.87;;;23.30;28.50;;;;;;2263570;61;20360;-58
2022/12/27 00:53:11;0.00;0.00;0.62;0.00;0.00;0.62;3.20;0.90;;;23.30;28.50;;;;;;2263247;61;20415;-59
2022/12/27 00:55:56;0.00;0.00;0.62;0.00;0.00;0.62;2.30;0.90;;;23.30;28.50;;;;;;2263572;61;20372;-57
2022/12/27 00:58:41;0.00;0.00;0.62;0.00;0.00;0.62;2.07;0.70;;;23.30;28.50;;;;;;2263538;61;20904;-58
2022/12/27 01:01:29;0.00;0.00;0.62;0.00;0.00;0.62;1.70;0.80;;;23.30;28.50;;;;;;2263251;61;20422;-58
2022/12/27 01:04:16;0.00;0.00;0.62;0.00;0.00;0.62;3.10;1.13;;;23.30;28.50;;;;;;2263638;61;20376;-57
2022/12/27 01:07:01;0.00;0.00;0.62;0.00;0.00;0.62;1.60;0.90;;;23.30;28.50;;;;;;2263813;61;20736;-58
2022/12/27 01:09:46;0.00;0.00;0.62;0.00;0.00;0.62;1.60;0.80;;;23.30;28.50;;;;;;2263253;61;20379;-54
2022/12/27 01:12:31;0.00;0.00;0.62;0.00;0.00;0.62;1.30;0.80;;;23.30;28.50;;;;;;2263701;61;20364;-50
2022/12/27 01:15:16;0.00;0.00;0.62;0.00;0.00;0.62;1.77;0.80;;;23.20;28.40;;;;;;2263561;61;20438;-54
2022/12/27 01:18:01;0.00;0.00;0.62;0.00;0.00;0.62;1.60;0.80;;;23.30;28.40;;;;;;2263408;61;20503;-52
2022/12/27 01:20:46;0.00;0.00;0.62;0.00;0.00;0.62;1.50;0.83;;;23.20;28.40;;;;;;2263825;61;20360;-55
2022/12/27 01:23:31;0.00;0.00;0.62;0.00;0.00;0.62;1.57;0.83;;;23.20;28.40;;;;;;2263501;61;20431;-54
2022/12/27 01:26:20;0.00;0.00;0.62;0.00;0.00;0.62;2.33;0.77;;;23.20;28.50;;;;;;2263778;61;20340;-55
2022/12/27 01:29:05;0.00;0.00;0.62;0.00;0.00;0.62;2.33;0.90;;;23.20;28.50;;;;;;2263974;61;20480;-54
2022/12/27 01:31:50;0.00;0.00;0.62;0.00;0.00;0.62;1.50;0.80;;;23.20;28.50;;;;;;2263311;61;20349;-51
2022/12/27 01:34:34;0.00;0.00;0.62;0.00;0.00;0.62;1.73;1.03;;;23.20;28.50;;;;;;2263694;61;20388;-56
2022/12/27 01:37:19;0.00;0.00;0.62;0.00;0.00;0.62;1.57;0.80;;;23.20;28.40;;;;;;2263723;61;20779;-61
2022/12/27 01:40:05;0.00;0.00;0.62;0.00;0.00;0.62;1.43;0.80;;;23.20;28.40;;;;;;2263057;61;20344;-61
2022/12/27 01:42:51;0.00;0.00;0.62;0.00;0.00;0.62;1.90;1.00;;;23.20;28.50;;;;;;2263135;61;20646;-60
2022/12/27 01:45:37;0.00;0.00;0.62;0.00;0.00;0.62;1.47;0.80;;;23.20;28.50;;;;;;2263151;61;20891;-60
2022/12/27 01:48:23;0.00;0.00;0.62;0.00;0.00;0.62;2.10;0.90;;;23.20;28.50;;;;;;2263420;61;20343;-60
2022/12/27 01:51:09;0.00;0.00;0.62;0.00;0.00;0.62;1.70;0.90;;;23.20;28.50;;;;;;2263433;61;20361;-60
2022/12/27 01:53:54;0.00;0.00;0.62;0.00;0.00;0.62;2.27;0.83;;;23.20;28.40;;;;;;2263024;61;20427;-61
2022/12/27 01:56:39;0.00;0.00;0.62;0.00;0.00;0.62;1.70;1.00;;;23.20;28.40;;;;;;2263470;61;20360;-54
2022/12/27 01:59:25;0.00;0.00;0.62;0.00;0.00;0.62;1.70;0.97;;;23.20;28.40;;;;;;2263557;61;20388;-59
2022/12/27 02:02:09;0.00;0.00;0.62;0.00;0.00;0.62;1.87;0.90;;;23.20;28.70;;;;;;2263434;61;20418;-57
2022/12/27 02:04:54;0.00;0.00;0.62;0.00;0.00;0.62;1.90;1.20;;;23.10;28.00;;;;;;2263872;61;20827;-55
2022/12/27 02:07:49;0.00;0.00;0.62;0.00;0.00;0.62;3.27;1.30;;;23.10;27.70;;;;;;2264166;61;20978;-53
2022/12/27 02:10:34;0.00;0.00;0.62;0.00;0.00;0.62;2.47;1.43;;;23.00;27.40;;;;;;2263381;61;20356;-52
2022/12/27 02:13:20;0.00;0.00;0.62;0.00;0.00;0.62;3.03;1.60;;;23.00;27.10;;;;;;2264234;61;20383;-58
2022/12/27 02:16:13;0.00;0.00;0.62;0.00;0.00;0.62;3.20;1.83;;;22.90;26.90;;;;;;2263771;61;20911;-56
2022/12/27 02:18:57;0.00;0.00;0.62;0.00;0.00;0.62;2.90;1.30;;;22.80;26.50;;;;;;2263615;61;20916;-58
2022/12/27 02:22:17;0.00;0.00;0.62;0.00;0.00;0.62;3.60;1.73;;;22.80;26.50;;;;;;2262988;61;20445;-57
2022/12/27 02:25:20;0.00;0.00;0.62;0.00;0.00;0.62;3.93;1.30;;;22.70;26.20;;;;;;2262745;61;20422;-57
2022/12/27 02:28:19;0.00;0.00;0.62;0.00;0.00;0.62;5.00;2.47;;;22.60;26.20;;;;;;2263500;61;20359;-59
2022/12/27 02:31:13;0.00;0.00;0.62;0.00;0.00;0.62;3.37;1.93;;;22.50;26.30;;;;;;2263256;61;20410;-59
2022/12/27 02:34:02;0.00;0.00;0.62;0.00;0.00;0.62;4.73;2.43;;;22.40;25.60;;;;;;2262963;61;20384;-56
2022/12/27 02:36:51;0.00;0.00;0.62;0.00;0.00;0.62;6.10;2.10;;;22.40;25.40;;;;;;2263647;61;20805;-59
2022/12/27 02:39:40;0.00;0.00;0.62;0.00;0.00;0.62;3.40;2.03;;;22.20;25.10;;;;;;2263023;61;20402;-56
2022/12/27 02:55:33;0.00;0.00;0.62;0.00;0.00;0.62;4.20;1.97;;;21.80;25.70;;;;;;2263257;61;20820;-56
2022/12/27 02:58:31;0.00;0.00;0.62;0.00;0.00;0.62;5.10;2.30;;;21.80;25.10;;;;;;2264035;61;20367;-56
2022/12/27 03:04:52;0.00;0.00;0.62;0.00;0.00;0.62;3.40;2.10;;;21.60;25.00;;;;;;2264191;61;20368;-52
2022/12/27 03:07:42;0.00;0.00;0.62;0.00;0.00;0.62;5.70;1.77;;;21.60;25.10;;;;;;2263563;61;20818;-56
2022/12/27 03:16:56;0.00;0.00;0.62;0.00;0.00;0.62;4.10;1.73;;;21.40;25.00;;;;;;2263681;61;20403;-58
2022/12/27 03:25:56;0.00;0.00;0.62;0.00;0.00;0.62;5.53;2.20;;;21.20;24.90;;;;;;2264228;61;20364;-55
2022/12/27 03:35:06;0.00;0.00;0.62;0.00;0.00;0.62;3.80;2.10;;;21.00;25.40;;;;;;2263920;61;20403;-57
2022/12/27 03:38:02;0.00;0.00;0.62;0.00;0.00;0.62;2.37;1.50;;;21.00;25.00;;;;;;2263679;61;20361;-55
2022/12/27 03:43:56;0.00;0.00;0.62;0.00;0.00;0.62;3.30;2.00;;;20.80;24.90;;;;;;2263866;61;20935;-51
2022/12/27 03:46:42;0.00;0.00;0.62;0.00;0.00;0.62;4.30;2.00;;;20.80;24.90;;;;;;2263710;61;20407;-56
2022/12/27 03:49:33;0.00;0.00;0.62;0.00;0.00;0.62;4.87;1.67;;;20.80;24.90;;;;;;2264038;61;20360;-57
2022/12/27 03:52:26;0.00;0.00;0.62;0.00;0.00;0.62;5.50;2.37;;;20.70;24.90;;;;;;2263596;61;20400;-54
2022/12/27 03:55:12;0.00;0.00;0.62;0.00;0.00;0.62;2.80;1.67;;;20.70;24.90;;;;;;2263714;61;20419;-59
2022/12/27 03:57:57;0.00;0.00;0.62;0.00;0.00;0.62;5.03;2.20;;;20.60;24.90;;;;;;2263964;61;20364;-53
2022/12/27 04:00:42;0.00;0.00;0.62;0.00;0.00;0.62;3.60;1.90;;;20.60;24.90;;;;;;2263249;61;20509;-57
2022/12/27 04:03:26;0.00;0.00;0.62;0.00;0.00;0.62;2.80;1.80;;;20.60;24.90;;;;;;2263685;61;20942;-55
2022/12/27 04:06:11;0.00;0.00;0.62;0.00;0.00;0.62;5.63;2.20;;;20.50;24.90;;;;;;2263854;61;20418;-60
2022/12/27 04:36:32;0.00;0.00;0.62;0.00;0.00;0.62;8.13;2.20;;;20.10;24.80;;;;;;2263324;61;20498;-55
2022/12/27 04:39:17;0.00;0.00;0.62;0.00;0.00;0.62;4.77;2.77;;;20.00;24.80;;;;;;2263563;61;20455;-56
2022/12/27 04:57:27;0.00;0.00;0.62;0.00;0.00;0.62;4.43;1.97;;;19.70;24.70;;;;;;2263900;61;20399;-59
2022/12/27 05:03:22;0.00;0.00;0.62;0.00;0.00;0.62;6.07;2.53;;;19.70;24.90;;;;;;2263384;61;20426;-60
2022/12/27 05:06:07;0.00;0.00;0.62;0.00;0.00;0.62;3.80;2.30;;;19.60;24.80;;;;;;2263213;61;20890;-60
2022/12/27 05:15:00;0.00;0.00;0.62;0.00;0.00;0.62;3.60;2.13;;;19.50;24.80;;;;;;2263052;61;20391;-60
2022/12/27 05:17:44;0.00;0.00;0.62;0.00;0.00;0.62;4.70;2.40;;;19.40;24.80;;;;;;2263870;61;20824;-58
2022/12/27 05:20:29;0.00;0.00;0.62;0.00;0.00;0.62;4.87;2.30;;;19.40;25.30;;;;;;2263104;61;20773;-60
2022/12/27 05:26:19;0.00;0.00;0.62;0.00;0.00;0.62;4.90;2.80;;;19.30;24.80;;;;;;2263621;61;20746;-59
2022/12/27 05:29:07;0.00;0.00;0.62;0.00;0.00;0.62;6.70;3.03;;;19.30;25.00;;;;;;2262652;61;20360;-59
2022/12/27 05:31:52;0.00;0.00;0.62;0.00;0.00;0.62;6.07;2.70;;;19.30;25.00;;;;;;2263543;61;20369;-60
2022/12/27 05:34:36;0.00;0.00;0.62;0.00;0.00;0.62;4.90;2.43;;;19.30;25.00;;;;;;2263354;61;21000;-59
2022/12/27 05:37:21;0.00;0.00;0.62;0.00;0.00;0.62;3.70;2.73;;;19.20;25.00;;;;;;2262986;61;20368;-57
2022/12/27 05:40:08;0.00;0.00;0.62;0.00;0.00;0.62;5.60;2.93;;;19.20;25.00;;;;;;2263766;61;20364;-59
2022/12/27 05:42:56;0.00;0.00;0.62;0.00;0.00;0.62;3.33;2.43;;;19.20;25.00;;;;;;2262905;61;20380;-60
2022/12/27 05:45:42;0.00;0.00;0.62;0.00;0.00;0.62;6.50;2.87;;;19.20;25.00;;;;;;2263132;61;20363;-59
2022/12/27 05:48:27;0.00;0.00;0.62;0.00;0.00;0.62;6.20;3.00;;;19.10;25.00;;;;;;2263475;61;20461;-53
2022/12/27 05:51:15;0.00;0.00;0.62;0.00;0.00;0.62;2.77;2.27;;;19.10;25.00;;;;;;2263316;61;20934;-59
2022/12/27 05:54:00;0.00;0.00;0.62;0.00;0.00;0.62;5.83;2.53;;;19.10;25.10;;;;;;2262971;61;20911;-58
2022/12/27 05:56:44;0.00;0.00;0.62;0.00;0.00;0.62;3.80;2.50;;;19.10;25.20;;;;;;2263644;61;20406;-53
2022/12/27 05:59:29;0.00;0.00;0.62;0.00;0.00;0.62;5.30;2.70;;;19.00;25.20;;;;;;2262641;61;20815;-54
2022/12/27 06:02:15;0.00;0.00;0.62;0.00;0.00;0.62;3.20;2.77;;;19.00;25.10;;;;;;2263511;61;20368;-56
2022/12/27 06:05:00;0.00;0.00;0.62;0.00;0.00;0.62;5.83;2.67;;;19.00;25.20;;;;;;2262532;61;20380;-49
2022/12/27 06:07:44;0.00;0.00;0.62;0.00;0.00;0.62;5.07;2.87;;;19.00;25.20;;;;;;2263435;61;20368;-55
2022/12/27 06:10:29;0.00;0.00;0.62;0.00;0.00;0.62;3.73;2.50;;;19.00;25.20;;;;;;2263595;61;20364;-54
2022/12/27 06:13:14;0.00;0.00;0.62;0.00;0.00;0.62;3.30;2.30;;;19.00;25.30;;;;;;2263039;61;20383;-49
2022/12/27 06:16:00;0.00;0.00;0.62;0.00;0.00;0.62;4.97;2.83;;;19.00;25.30;;;;;;2263246;61;20479;-51
2022/12/27 06:18:46;0.00;0.00;0.62;0.00;0.00;0.62;5.57;2.27;;;19.00;25.30;;;;;;2263563;61;20410;-49
2022/12/27 06:21:31;0.00;0.00;0.62;0.00;0.00;0.62;3.17;2.40;;;19.00;25.30;;;;;;2262989;61;20449;-53
2022/12/27 06:24:16;0.00;0.00;0.62;0.00;0.00;0.62;4.03;2.63;;;18.90;24.90;;;;;;2264001;61;20434;-53
2022/12/27 06:27:01;0.00;0.00;0.62;0.00;0.00;0.62;4.63;2.80;;;18.90;24.90;;;;;;2263773;61;20360;-52
2022/12/27 06:29:45;0.00;0.00;0.62;0.00;0.00;0.62;3.87;2.63;;;18.90;25.00;;;;;;2263853;61;20390;-51
2022/12/27 06:32:31;0.00;0.00;0.62;0.00;0.00;0.62;5.57;2.40;;;18.80;24.90;;;;;;2264348;61;20360;-56
2022/12/27 06:35:19;0.00;0.00;0.62;0.00;0.00;0.62;4.67;2.47;;;18.80;25.60;;;;;;2263770;61;20438;-56
2022/12/27 06:38:03;0.00;0.00;0.62;0.00;0.00;0.62;6.40;2.60;;;18.80;25.20;;;;;;2263416;61;20847;-56
2022/12/27 06:40:48;0.00;0.00;0.62;0.00;0.00;0.62;3.60;2.10;;;18.80;25.80;;;;;;2264120;61;20447;-51
2022/12/27 06:43:33;0.00;0.00;0.62;0.00;0.00;0.62;4.73;3.23;;;18.70;25.30;;;;;;2263287;61;20410;-57
2022/12/27 06:46:18;0.00;0.00;0.62;0.00;0.00;0.62;2.87;2.20;;;18.70;25.30;;;;;;2264179;61;20413;-54
2022/12/27 06:49:03;0.00;0.00;0.62;0.00;0.00;0.62;3.20;2.17;;;18.70;25.30;;;;;;2263760;61;20999;-59
2022/12/27 06:51:50;0.00;0.00;0.62;0.00;0.00;0.62;4.90;2.70;;;18.70;25.40;;;;;;2263890;61;20802;-56
2022/12/27 06:54:34;0.00;0.00;0.62;0.00;0.00;0.62;4.00;2.27;;;18.70;25.40;;;;;;2263909;61;20435;-54
2022/12/27 06:57:19;0.00;0.00;0.62;0.00;0.00;0.62;4.40;2.60;;;18.70;25.40;;;;;;2263890;61;20414;-55
2022/12/27 07:00:05;0.00;0.00;0.62;0.00;0.00;0.62;5.13;2.50;;;18.70;25.50;;;;;;2263883;61;20379;-52
2022/12/27 07:02:50;0.00;0.00;0.62;0.00;0.00;0.62;4.60;2.80;;;18.70;25.50;;;;;;2263796;61;20456;-54
2022/12/27 07:05:37;0.00;0.00;0.62;0.00;0.00;0.62;3.70;2.37;;;18.70;25.60;;;;;;2263419;61;20407;-52
2022/12/27 07:08:23;0.00;0.00;0.62;0.00;0.00;0.62;4.90;2.57;;;18.70;25.50;;;;;;2264125;61;20398;-53
2022/12/27 07:11:10;0.00;0.00;0.62;0.00;0.00;0.62;3.57;2.10;;;18.60;25.40;;;;;;2263860;61;20788;-50
2022/12/27 07:13:56;0.00;0.00;0.62;0.00;0.00;0.62;5.17;2.30;;;18.60;25.30;;;;;;2263625;61;20428;-53
2022/12/27 07:16:41;0.00;0.00;0.62;0.00;0.00;0.62;4.77;2.20;;;18.60;25.30;;;;;;2264156;61;20452;-53
2022/12/27 07:19:25;0.00;0.00;0.62;0.00;0.00;0.62;5.43;2.33;;;18.60;25.30;;;;;;2261980;61;20411;-51
2022/12/27 07:22:10;0.00;0.00;0.62;0.00;0.00;0.62;8.13;2.90;;;18.50;25.20;;;;;;2259694;61;20389;-54
2022/12/27 07:24:56;0.00;0.00;0.62;0.00;0.00;0.62;3.83;2.60;;;18.50;25.30;;;;;;2260012;61;20431;-56
2022/12/27 07:27:41;0.00;0.00;0.62;0.00;0.00;0.62;4.60;2.27;;;18.50;25.50;;;;;;2260453;61;20407;-58
2022/12/27 07:30:26;0.00;0.00;0.62;0.00;0.00;0.62;3.07;1.97;;;18.50;25.50;;;;;;2260130;61;20421;-59
2022/12/27 07:33:11;0.00;0.00;0.62;0.00;0.00;0.62;5.80;2.43;;;18.50;25.50;;;;;;2261110;61;20384;-58
2022/12/27 07:35:59;0.00;0.00;0.62;0.00;0.00;0.62;5.53;3.10;;;18.50;25.60;;;;;;2258826;61;20412;-56
2022/12/27 07:38:45;0.00;0.00;0.62;0.00;0.00;0.62;6.17;2.60;;;18.50;25.50;;;;;;2269984;61;20444;-57
2022/12/27 07:41:32;0.00;0.00;0.62;0.00;0.00;0.62;4.30;2.20;;;18.50;25.50;;;;;;2264222;61;20767;-57
2022/12/27 07:44:18;0.00;0.00;0.62;0.00;0.00;0.62;6.67;3.00;;;18.50;25.50;;;;;;2263878;61;20426;-60
2022/12/27 07:47:03;0.00;0.00;0.62;0.00;0.00;0.62;4.70;2.40;;;18.50;25.50;;;;;;2264140;61;20452;-55
2022/12/27 07:49:48;0.00;0.00;0.62;0.00;0.00;0.62;5.40;2.70;;;18.50;25.50;;;;;;2264664;61;20392;-56
2022/12/27 07:52:33;0.00;0.00;0.62;0.00;0.00;0.62;5.07;2.57;;;18.50;25.50;;;;;;2264667;61;20501;-51
2022/12/27 07:55:17;0.00;0.00;0.62;0.00;0.00;0.62;3.00;2.47;;;18.50;25.50;;;;;;2264112;61;20408;-57
2022/12/27 07:58:03;0.00;0.00;0.62;0.00;0.00;0.62;5.30;2.70;;;18.40;25.50;;;;;;2265515;61;20934;-53
2022/12/27 08:00:50;0.00;0.00;0.62;0.00;0.00;0.62;5.53;2.33;;;18.40;25.50;;;;;;2263929;61;20421;-55
2022/12/27 08:03:35;0.00;0.00;0.62;0.00;0.00;0.62;4.70;2.67;;;18.40;25.50;;;;;;2262567;61;20385;-53
2022/12/27 08:06:27;0.00;0.00;0.62;0.00;0.00;0.62;4.87;2.70;;;18.40;25.50;;;;;;2260681;61;20928;-55
2022/12/27 08:09:17;0.00;0.00;0.62;0.00;0.00;0.62;3.90;2.77;;;18.40;25.50;;;;;;2260403;61;20773;-59
2022/12/27 08:12:01;0.00;0.00;0.62;0.00;0.00;0.62;3.93;2.60;;;18.40;25.50;;;;;;2263555;61;20783;-60
2022/12/27 08:14:47;0.00;0.00;0.62;0.00;0.00;0.62;5.40;2.80;;;18.40;25.50;;;;;;2263907;61;20842;-54
2022/12/27 08:17:32;0.00;0.00;0.62;0.00;0.00;0.62;5.30;2.63;;;18.30;25.40;;;;;;2260689;61;20361;-58
2022/12/27 08:20:17;0.00;0.00;0.62;0.00;0.00;0.62;6.03;4.07;;;18.30;25.40;;;;;;2260001;61;20373;-56
2022/12/27 08:23:01;0.00;0.00;0.62;0.00;0.00;0.62;5.50;3.17;;;18.30;25.40;;;;;;2259668;61;20435;-56
2022/12/27 08:25:46;0.00;0.00;0.62;0.00;0.00;0.62;7.57;2.67;;;18.30;25.40;;;;;;2259401;61;20412;-56
2022/12/27 08:28:31;0.00;0.00;0.62;0.00;0.00;0.62;5.03;2.90;;;18.30;25.40;;;;;;2259885;61;20356;-56
2022/12/27 08:31:18;0.00;0.00;0.62;0.00;0.00;0.62;6.47;2.70;;;18.20;25.30;;;;;;2260356;61;20765;-61
2022/12/27 08:34:03;0.00;0.00;0.62;0.00;0.00;0.62;5.83;2.63;;;18.20;25.30;;;;;;2263285;61;20948;-60
2022/12/27 08:36:50;0.00;0.00;0.62;0.00;0.00;0.62;4.07;2.60;;;18.20;25.30;;;;;;2263729;61;20946;-58
2022/12/27 08:39:34;0.00;0.00;0.62;0.00;0.00;0.62;4.73;2.90;;;18.20;25.50;;;;;;2263522;61;20778;-56
2022/12/27 08:42:19;0.00;0.00;0.62;0.00;0.00;0.62;5.97;2.90;;;18.10;25.50;;;;;;2263565;61;20387;-56
2022/12/27 08:45:05;0.00;0.00;0.62;0.00;0.00;0.62;4.10;2.33;;;18.10;25.60;;;;;;2263594;61;20426;-55
2022/12/27 08:47:52;0.00;0.00;0.62;0.00;0.00;0.62;6.37;2.57;;;18.10;25.60;;;;;;2259729;61;20372;-56
2022/12/27 08:50:36;0.00;0.00;0.62;0.00;0.00;0.62;4.53;2.13;;;18.20;26.20;;;;;;2260173;61;20849;-55
2022/12/27 08:53:22;0.00;0.00;0.62;0.00;0.00;0.62;6.87;2.90;;;18.10;25.60;;;;;;2259138;61;20436;-56
2022/12/27 08:56:07;0.00;0.00;0.62;0.00;0.00;0.62;4.30;2.83;;;18.20;25.50;;;;;;2259516;61;20723;-57
2022/12/27 08:58:52;0.00;0.00;0.62;0.00;0.00;0.62;5.07;2.33;;;18.10;25.40;;;;;;2496199;53;20444;-57
2022/12/27 09:01:36;0.00;0.00;0.62;0.00;0.00;0.62;8.60;3.23;;;18.10;25.50;;;;;;2262356;61;20419;-55
2022/12/27 09:04:23;0.00;0.00;0.62;0.00;0.00;0.62;6.87;2.50;;;18.10;25.60;;;;;;2263252;61;20388;-58
2022/12/27 09:07:08;0.00;0.00;0.62;0.00;0.00;0.62;4.37;2.90;;;18.10;25.50;;;;;;2263881;61;20363;-55
2022/12/27 09:09:52;0.00;0.00;0.62;0.00;0.00;0.62;6.47;2.90;;;18.10;25.50;;;;;;2263241;61;20410;-59
2022/12/27 09:12:38;0.00;0.00;0.62;0.00;0.00;0.62;4.27;2.73;;;18.10;25.60;;;;;;2263767;61;20434;-58
2022/12/27 09:15:23;0.00;0.00;0.62;0.00;0.00;0.62;6.23;3.00;;;18.10;25.70;;;;;;2263648;61;20423;-55
2022/12/27 09:18:07;0.00;0.00;0.62;0.00;0.00;0.62;3.10;2.13;;;18.10;25.60;;;;;;2263155;61;20388;-58
2022/12/27 09:20:53;0.00;0.00;0.62;0.00;0.00;0.62;6.73;3.00;;;18.10;25.70;;;;;;2263698;61;20479;-58
2022/12/27 09:23:39;0.00;0.00;0.62;0.00;0.00;0.62;4.90;3.00;;;18.10;25.70;;;;;;2312299;57;20792;-56
2022/12/27 09:26:27;0.00;0.00;0.62;0.00;0.00;0.62;4.33;2.50;;;18.10;25.50;;;;;;2263711;61;20402;-49
2022/12/27 09:29:13;0.00;0.00;0.62;0.00;0.00;0.62;2.83;2.07;;;18.10;25.50;;;;;;2263985;61;20365;-53
2022/12/27 09:31:58;0.00;0.00;0.62;0.00;0.00;0.62;3.87;2.20;;;18.10;25.70;;;;;;2263557;61;20368;-52
2022/12/27 09:34:43;0.00;0.00;0.62;0.00;0.00;0.62;3.43;1.67;;;18.20;25.80;;;;;;2263601;61;20375;-53
2022/12/27 09:37:31;0.00;0.00;0.62;0.00;0.00;0.62;4.53;2.27;;;18.20;25.90;;;;;;2264056;61;20464;-55
2022/12/27 09:40:20;0.00;0.00;0.62;0.00;0.00;0.62;3.40;1.87;;;18.20;26.00;;;;;;2263539;61;20371;-58
2022/12/27 09:43:07;0.00;0.00;0.62;0.00;0.00;0.62;3.50;1.50;;;18.30;26.00;;;;;;2263706;61;20419;-56
2022/12/27 09:45:56;0.00;0.00;0.62;0.00;0.00;0.62;2.90;1.97;;;18.40;26.10;;;;;;2263986;61;20501;-59
2022/12/27 09:48:42;0.00;0.00;0.62;0.00;0.00;0.62;3.53;1.87;;;18.40;26.10;;;;;;2263879;61;20372;-59
2022/12/27 09:51:35;0.00;0.00;0.62;0.00;0.00;0.62;3.50;1.80;;;18.50;26.20;;;;;;2264050;61;20372;-56
2022/12/27 09:54:27;0.00;0.00;0.62;0.00;0.00;0.62;2.87;1.83;;;18.60;26.30;;;;;;2259728;61;20400;-55
2022/12/27 09:57:19;0.00;0.00;0.62;0.00;0.00;0.62;4.03;2.00;;;18.60;26.30;;;;;;2264100;61;20369;-58
2022/12/27 10:00:14;0.00;0.00;0.62;0.00;0.00;0.62;2.60;1.90;;;18.70;26.40;;;;;;2259767;61;20424;-57
2022/12/27 10:03:03;0.00;0.00;0.62;0.00;0.00;0.62;2.83;1.90;;;18.80;26.40;;;;;;2259338;61;20361;-58
2022/12/27 10:05:53;0.00;0.00;0.62;0.00;0.00;0.62;2.97;1.57;;;18.80;26.40;;;;;;2259786;61;20928;-57
2022/12/27 10:08:45;0.00;0.00;0.62;0.00;0.00;0.62;3.27;1.90;;;18.90;26.40;;;;;;2259300;61;20535;-59
2022/12/27 10:11:41;0.00;0.00;0.62;0.00;0.00;0.62;3.30;2.30;;;19.00;26.30;;;;;;2260089;61;20375;-58
2022/12/27 10:14:47;0.00;0.00;0.62;0.00;0.00;0.62;2.97;1.87;;;19.10;26.30;;;;;;2259038;61;20408;-57
2022/12/27 10:17:47;0.00;0.00;0.62;0.00;0.00;0.62;4.27;1.60;;;19.10;26.30;;;;;;2259402;61;20461;-59
2022/12/27 10:20:52;0.00;0.00;0.62;0.00;0.00;0.62;4.00;2.10;;;19.20;26.30;;;;;;2260052;61;20496;-56
2022/12/27 10:23:42;0.00;0.00;0.62;0.00;0.00;0.62;3.10;2.03;;;19.20;26.20;;;;;;2259236;61;20861;-58
2022/12/27 10:26:27;0.00;0.00;0.62;0.00;0.00;0.62;3.00;1.87;;;19.30;26.20;;;;;;2259736;61;20422;-58
2022/12/27 10:29:19;0.00;0.00;0.62;0.00;0.00;0.62;2.80;1.97;;;19.30;26.10;;;;;;2259404;61;20364;-58
2022/12/27 10:32:05;0.00;0.00;0.62;0.00;0.00;0.62;2.53;1.60;;;19.40;26.20;;;;;;2259558;61;20426;-56
2022/12/27 10:34:55;0.00;0.00;0.62;0.00;0.00;0.62;2.67;1.80;;;19.50;26.30;;;;;;2259488;61;20388;-59
2022/12/27 10:37:41;0.00;0.00;0.62;0.00;0.00;0.62;2.60;1.90;;;19.50;26.30;;;;;;2259696;61;20503;-58
2022/12/27 10:40:40;0.00;0.00;0.62;0.00;0.00;0.62;3.80;2.00;;;19.50;26.30;;;;;;2259510;61;20384;-58
2022/12/27 10:43:34;0.00;0.00;0.62;0.00;0.00;0.62;2.37;1.47;;;19.60;26.30;;;;;;2259723;61;20392;-55
2022/12/27 10:46:23;0.00;0.00;0.62;0.00;0.00;0.62;3.53;1.53;;;19.60;26.30;;;;;;2258718;61;20373;-59
2022/12/27 10:49:23;0.00;0.00;0.62;0.00;0.00;0.62;1.97;1.40;;;19.70;26.40;;;;;;2259681;61;20365;-58
2022/12/27 10:52:15;0.00;0.00;0.62;0.00;0.00;0.62;2.63;1.60;;;19.70;26.40;;;;;;2259500;61;20400;-58
2022/12/27 10:55:00;0.00;0.00;0.62;0.00;0.00;0.62;4.03;1.70;;;19.80;26.30;;;;;;2259092;61;20932;-58
2022/12/27 10:57:45;0.00;0.00;0.62;0.00;0.00;0.62;2.80;1.63;;;19.80;26.30;;;;;;2260027;61;20380;-58
2022/12/27 11:00:29;0.00;0.00;0.62;0.00;0.00;0.62;3.50;1.90;;;19.80;26.20;;;;;;2259273;61;20392;-58
2022/12/27 11:03:18;0.00;0.00;0.62;0.00;0.00;0.62;2.00;1.07;;;19.90;26.30;;;;;;2259864;61;20473;-58
2022/12/27 11:06:15;0.00;0.00;0.62;0.00;0.00;0.62;3.47;1.60;;;19.90;26.20;;;;;;2259874;61;20467;-58
2022/12/27 11:09:25;0.00;0.00;0.62;0.00;0.00;0.62;2.27;1.30;;;19.90;26.30;;;;;;2259464;61;20364;-59
2022/12/27 11:12:27;0.00;0.00;0.62;0.00;0.00;0.62;2.63;1.60;;;19.90;26.50;;;;;;2260204;61;20365;-59
2022/12/27 11:15:19;0.00;0.00;0.62;0.00;0.00;0.62;2.80;1.90;;;20.00;26.60;;;;;;2259983;61;20420;-59
2022/12/27 11:18:11;0.00;0.00;0.62;0.00;0.00;0.62;2.90;1.77;;;20.00;26.60;;;;;;2259764;61;20436;-59
2022/12/27 11:20:59;0.00;0.00;0.62;0.00;0.00;0.62;2.37;1.57;;;20.10;26.70;;;;;;2260293;61;20400;-58
2022/12/27 11:23:49;0.00;0.00;0.62;0.00;0.00;0.62;1.70;1.27;;;20.10;26.60;;;;;;2259291;61;20385;-59
2022/12/27 11:26:48;0.00;0.00;0.62;0.00;0.00;0.62;2.40;1.30;;;20.20;26.60;;;;;;2260168;61;20365;-56
2022/12/27 11:29:33;0.00;0.00;0.62;0.00;0.00;0.62;1.80;1.20;;;20.20;26.50;;;;;;2259628;61;20891;-58
2022/12/27 11:32:22;0.00;0.00;0.62;0.00;0.00;0.62;2.30;1.43;;;20.30;26.50;;;;;;2259538;61;20365;-54
2022/12/27 11:35:16;0.00;0.00;0.62;0.00;0.00;0.62;1.90;1.20;;;20.40;26.50;;;;;;2260034;61;20442;-55
2022/12/27 11:38:03;0.00;0.00;0.62;0.00;0.00;0.62;1.90;1.10;;;20.40;26.40;;;;;;2259024;61;20905;-59
2022/12/27 11:40:59;0.00;0.00;0.62;0.00;0.00;0.62;2.00;1.40;;;20.40;26.40;;;;;;2260042;61;20365;-59
2022/12/27 11:43:49;0.00;0.00;0.62;0.00;0.00;0.62;1.83;1.10;;;20.50;26.40;;;;;;2259711;61;20404;-56
2022/12/27 11:46:40;0.00;0.00;0.62;0.00;0.00;0.62;2.73;1.67;;;20.50;26.30;;;;;;2259314;61;20403;-59
2022/12/27 11:49:31;0.00;0.00;0.62;0.00;0.00;0.62;2.73;1.13;;;20.60;26.30;;;;;;2260070;61;20361;-52
2022/12/27 11:52:44;0.00;0.00;0.62;0.00;0.00;0.62;1.93;1.10;;;20.60;26.30;;;;;;2260107;61;20755;-56
2022/12/27 11:56:07;0.00;0.00;0.62;0.00;0.00;0.62;2.10;1.33;;;20.60;26.70;;;;;;2259919;61;20968;-58
2022/12/27 11:59:24;0.00;0.00;0.62;0.00;0.00;0.62;2.30;1.20;;;20.70;26.20;;;;;;2259342;61;20838;-54
2022/12/27 12:02:32;0.00;0.00;0.62;0.00;0.00;0.62;1.60;1.00;;;20.70;26.20;;;;;;2259513;61;20387;-54
2022/12/27 12:05:59;0.00;0.00;0.62;0.00;0.00;0.62;2.10;1.37;;;20.70;26.20;;;;;;2259977;61;20449;-56
2022/12/27 12:09:38;0.00;0.00;0.62;0.00;0.00;0.62;2.07;1.10;;;20.80;26.20;;;;;;2259431;61;20368;-59
2022/12/27 12:13:02;0.00;0.00;0.62;0.00;0.00;0.62;1.60;1.10;;;20.80;26.10;;;;;;2242846;61;20494;-57
2022/12/27 12:16:25;0.00;0.00;0.62;0.00;0.00;0.62;2.37;1.20;;;20.80;26.10;;;;;;2243817;61;20972;-58
2022/12/27 12:19:27;0.00;0.00;0.62;0.00;0.00;0.62;1.67;1.00;;;20.90;26.10;;;;;;2259882;61;20360;-59
2022/12/27 12:22:33;0.00;0.00;0.62;0.00;0.00;0.62;1.70;1.17;;;20.90;26.10;;;;;;2259268;61;20411;-56
2022/12/27 12:26:03;0.00;0.00;0.62;0.00;0.00;0.62;1.90;1.30;;;20.90;26.00;;;;;;2259792;61;20455;-54
2022/12/27 12:29:17;0.00;0.00;0.62;0.00;0.00;0.62;2.13;1.23;;;20.90;26.00;;;;;;2259833;61;20364;-57
2022/12/27 12:32:27;0.00;0.00;0.62;0.00;0.00;0.62;2.00;1.03;;;21.00;26.00;;;;;;2259573;61;20419;-59
2022/12/27 12:35:28;0.00;0.00;0.62;0.00;0.00;0.62;2.33;1.00;;;21.00;26.00;;;;;;2259829;61;20986;-59
2022/12/27 12:38:20;0.00;0.00;0.62;0.00;0.00;0.62;1.70;0.90;;;21.00;26.00;;;;;;2259250;61;20872;-58
2022/12/27 12:41:49;0.00;0.00;0.62;0.00;0.00;0.62;2.00;1.23;;;21.00;26.40;;;;;;2259936;61;20419;-58